Terminal Aerodrome Forecast
Issued by NWS Cleveland, OH

Home | Current Version | Previous Version | Graphics & Text | Print | Product List | Glossary On
Versions: 1 2 3 4 5 6 7 8 9 10 11 12 13 14 15 16 17 18 19 20
446
FTUS41 KCLE 031730
TAFERI
TAF
KERI 031730Z 0318/0418 20016G26KT P6SM VCSH BKN035
     FM040100 24014KT P6SM -SHSN OVC035
     FM040700 25012KT 6SM -SHSN BKN018 OVC030=

USA.gov is the U.S. government's official web portal to all federal, state and local government web resources and services.